Time;durP1;ratioP1;P1;durP2;ratioP2;P2;SDS_P1;SDS_P2;PMS_P1;PMS_P2;Temp;Humidity;BMP_temperature;BMP_pressure;BME280_temperature;BME280_humidity;BME280_pressure;Samples;Min_cycle;Max_cycle;Signal;HPM_P1;HPM_P2
2023/08/08 00:01:30;;;;;;;59.97;57.13;;;;;;;15.81;100.00;92961.22;5064892;28;20052;-79
2023/08/08 00:03:56;;;;;;;66.13;63.25;;;;;;;15.82;100.00;92961.97;5063085;28;20060;-79
2023/08/08 00:06:23;;;;;;;49.53;47.35;;;;;;;15.81;100.00;92965.59;5066800;28;20094;-79
2023/08/08 00:08:50;;;;;;;39.53;37.65;;;;;;;15.78;100.00;92966.88;5067140;28;20052;-79
2023/08/08 00:11:16;;;;;;;46.88;44.70;;;;;;;15.77;100.00;92960.16;5063351;28;20048;-79
2023/08/08 00:13:43;;;;;;;148.00;141.45;;;;;;;15.83;100.00;92955.81;5064362;28;20048;-79
2023/08/08 00:16:11;;;;;;;118.47;113.28;;;;;;;15.83;100.00;92963.56;5062372;28;20052;-79
2023/08/08 00:18:38;;;;;;;63.33;60.58;;;;;;;15.83;100.00;92966.16;5060901;28;20453;-79
2023/08/08 00:21:07;;;;;;;70.53;67.43;;;;;;;15.76;100.00;92963.78;5065037;28;21240;-78
2023/08/08 00:23:34;;;;;;;57.22;54.67;;;;;;;15.79;100.00;92962.50;5063801;28;20498;-79
2023/08/08 00:26:01;;;;;;;50.03;47.85;;;;;;;15.76;100.00;92967.16;5062928;28;20082;-79
2023/08/08 00:28:27;;;;;;;57.72;55.22;;;;;;;15.74;100.00;92976.97;5065636;28;20049;-79
2023/08/08 00:30:54;;;;;;;164.45;157.35;;;;;;;15.75;100.00;92980.34;5061814;28;20044;-79
2023/08/08 00:33:22;;;;;;;60.00;57.35;;;;;;;15.69;100.00;92984.69;5064934;28;20449;-79
2023/08/08 00:35:49;;;;;;;57.33;54.78;;;;;;;15.67;100.00;92981.56;5061285;28;20058;-79
2023/08/08 00:38:16;;;;;;;169.52;162.00;;;;;;;15.63;100.00;92981.28;5061768;28;20498;-79
2023/08/08 00:40:43;;;;;;;147.02;140.65;;;;;;;15.63;100.00;92983.09;5065701;28;20514;-79
2023/08/08 00:43:09;;;;;;;90.15;86.10;;;;;;;15.61;100.00;92985.91;5061555;28;20098;-79
2023/08/08 00:45:37;;;;;;;46.03;44.00;;;;;;;15.53;100.00;92970.84;5065777;28;20448;-79
2023/08/08 00:48:04;;;;;;;69.93;66.85;;;;;;;15.51;100.00;92975.50;5065248;28;20605;-79
2023/08/08 00:50:32;;;;;;;67.55;64.60;;;;;;;15.65;100.00;92982.84;5064303;28;20094;-79
2023/08/08 00:52:59;;;;;;;59.60;57.08;;;;;;;15.66;100.00;92985.19;5062166;28;20067;-79
2023/08/08 00:55:26;;;;;;;52.40;50.08;;;;;;;15.66;100.00;92982.59;5064629;28;20547;-79
2023/08/08 00:57:53;;;;;;;96.07;91.97;;;;;;;15.65;100.00;92982.84;5065431;28;20109;-79
2023/08/08 01:00:20;;;;;;;53.17;50.88;;;;;;;15.71;100.00;92990.41;5063521;28;20040;-79
2023/08/08 01:02:46;;;;;;;50.20;47.95;;;;;;;15.63;100.00;92970.94;5063484;28;20044;-78
2023/08/08 01:05:13;;;;;;;136.13;130.15;;;;;;;15.71;100.00;92998.19;5066514;28;20106;-78
2023/08/08 01:07:47;;;;;;;60.58;57.95;;;;;;;15.54;100.00;92980.16;5057235;28;20048;-79
2023/08/08 01:10:17;;;;;;;45.83;43.83;;;;;;;15.42;100.00;92971.78;5062960;28;20074;-78
2023/08/08 01:12:47;;;;;;;85.78;82.10;;;;;;;15.29;100.00;92978.13;5059839;28;20457;-78
2023/08/08 01:15:15;;;;;;;80.40;76.88;;;;;;;15.15;100.00;92991.47;5062817;28;20555;-78
2023/08/08 01:17:44;;;;;;;86.93;82.95;;;;;;;15.28;100.00;92994.69;5065317;28;20065;-78
2023/08/08 01:20:16;;;;;;;168.05;160.40;;;;;;;14.89;100.00;92986.00;5064327;28;20040;-78
2023/08/08 01:22:56;;;;;;;82.35;78.78;;;;;;;14.98;100.00;92996.69;5062756;28;20072;-78
2023/08/08 01:25:24;;;;;;;140.52;134.57;;;;;;;14.93;100.00;92996.66;5061624;28;20098;-78
2023/08/08 01:27:51;;;;;;;100.60;96.32;;;;;;;14.66;100.00;92995.53;5065411;28;20583;-79
2023/08/08 01:30:17;;;;;;;149.02;142.23;;;;;;;14.63;100.00;93006.34;5058929;28;20071;-80
2023/08/08 01:32:44;;;;;;;94.97;90.85;;;;;;;14.41;100.00;93016.66;5065465;28;20044;-79
2023/08/08 01:35:11;;;;;;;220.65;211.07;;;;;;;14.38;100.00;93022.31;5065864;28;20052;-78
2023/08/08 01:37:42;;;;;;;113.32;108.40;;;;;;;14.12;100.00;93016.78;5065790;28;20044;-79
2023/08/08 01:40:11;;;;;;;133.65;127.85;;;;;;;13.84;100.00;93005.53;5064068;28;20048;-80
2023/08/08 01:42:41;;;;;;;104.35;99.68;;;;;;;14.15;100.00;93011.94;5066002;28;20044;-80
2023/08/08 01:45:09;;;;;;;175.60;167.93;;;;;;;14.17;100.00;93019.44;5065682;28;20045;-80
2023/08/08 01:47:36;;;;;;;104.88;100.43;;;;;;;14.35;100.00;93028.72;5065106;28;20044;-80
2023/08/08 01:50:03;;;;;;;149.48;142.93;;;;;;;14.35;100.00;93041.63;5065947;28;20044;-80
2023/08/08 01:52:30;;;;;;;187.40;179.27;;;;;;;14.05;100.00;93026.47;5060904;28;20049;-79
2023/08/08 01:54:56;;;;;;;210.05;200.52;;;;;;;14.16;100.00;93023.03;5063492;28;20474;-79
2023/08/08 01:57:23;;;;;;;206.63;197.48;;;;;;;13.93;100.00;93024.75;5065512;28;20517;-79
2023/08/08 01:59:51;;;;;;;198.20;189.50;;;;;;;13.52;100.00;93018.94;5065638;28;20055;-80
2023/08/08 02:02:18;;;;;;;226.63;216.55;;;;;;;13.49;100.00;93030.50;5065157;28;20044;-79
2023/08/08 02:04:45;;;;;;;243.43;232.35;;;;;;;13.13;100.00;93002.25;5062808;28;20094;-79
2023/08/08 02:07:12;;;;;;;246.13;235.07;;;;;;;13.32;100.00;93040.75;5063465;28;20102;-79
2023/08/08 02:09:39;;;;;;;242.07;231.25;;;;;;;13.13;100.00;93040.94;5067891;28;20506;-79
2023/08/08 02:12:06;;;;;;;263.67;251.57;;;;;;;13.16;100.00;93044.84;5067823;28;20469;-79
2023/08/08 02:14:33;;;;;;;253.68;242.45;;;;;;;13.43;100.00;93057.22;5067816;28;20113;-79
2023/08/08 02:17:01;;;;;;;246.75;235.80;;;;;;;13.56;100.00;93062.09;5069564;28;20056;-79
2023/08/08 02:19:27;;;;;;;232.95;222.85;;;;;;;13.62;100.00;93056.03;5068991;28;20049;-79
2023/08/08 02:21:54;;;;;;;254.32;243.02;;;;;;;13.61;100.00;93040.78;5069496;28;20056;-77
2023/08/08 02:24:21;;;;;;;257.88;246.50;;;;;;;13.66;100.00;93045.25;5067888;28;20045;-80
2023/08/08 02:26:48;;;;;;;248.65;237.63;;;;;;;13.96;100.00;93047.53;5065984;28;20056;-80
2023/08/08 02:29:15;;;;;;;141.98;135.82;;;;;;;14.13;100.00;93050.09;5068550;28;20139;-80
2023/08/08 02:31:41;;;;;;;123.53;118.15;;;;;;;13.87;100.00;93047.16;5065614;28;20086;-80
2023/08/08 02:34:10;;;;;;;134.40;128.60;;;;;;;13.90;100.00;93044.09;5069395;28;20349;-79
2023/08/08 02:36:36;;;;;;;134.65;128.80;;;;;;;14.23;100.00;93053.88;5066469;28;20102;-79
2023/08/08 02:39:03;;;;;;;178.63;170.93;;;;;;;13.87;100.00;93030.84;5068729;28;20040;-79
2023/08/08 02:41:30;;;;;;;220.90;211.10;;;;;;;13.99;100.00;93057.38;5068779;28;20131;-79
2023/08/08 02:43:57;;;;;;;117.47;112.15;;;;;;;13.56;100.00;93066.50;5068555;28;20045;-80
2023/08/08 02:46:24;;;;;;;232.15;221.68;;;;;;;13.46;100.00;93060.13;5068142;28;20056;-79
2023/08/08 02:48:50;;;;;;;229.20;218.80;;;;;;;13.29;100.00;93070.38;5069032;28;20445;-79
2023/08/08 02:51:18;;;;;;;240.45;230.05;;;;;;;13.09;100.00;93061.25;5064329;28;20053;-77
2023/08/08 02:53:45;;;;;;;238.35;227.63;;;;;;;13.10;100.00;93080.06;5068553;28;20102;-77
2023/08/08 02:56:12;;;;;;;259.48;248.00;;;;;;;13.01;100.00;93081.44;5064939;28;20098;-77
2023/08/08 02:58:38;;;;;;;262.42;250.40;;;;;;;13.02;100.00;93088.16;5068233;28;20502;-77
2023/08/08 03:01:05;;;;;;;268.58;256.27;;;;;;;13.20;100.00;93085.41;5067877;28;20102;-77
2023/08/08 03:03:35;;;;;;;284.63;272.15;;;;;;;13.22;100.00;93082.63;5066441;28;20041;-77
2023/08/08 03:06:02;;;;;;;274.35;262.50;;;;;;;13.37;100.00;93087.28;5067322;28;20494;-77
2023/08/08 03:08:30;;;;;;;271.38;259.05;;;;;;;13.44;100.00;93084.56;5067379;28;20063;-78
2023/08/08 03:10:57;;;;;;;253.23;242.05;;;;;;;13.58;100.00;93082.53;5065931;28;20045;-77
2023/08/08 03:13:24;;;;;;;152.15;145.52;;;;;;;13.79;100.00;93091.41;5067680;28;20041;-77
2023/08/08 03:15:51;;;;;;;188.05;179.80;;;;;;;13.93;100.00;93081.56;5067472;28;20056;-77
2023/08/08 03:18:18;;;;;;;177.02;169.20;;;;;;;13.85;100.00;93084.53;5068271;28;20186;-77
2023/08/08 03:20:44;;;;;;;138.48;132.30;;;;;;;13.61;100.00;93075.09;5068026;28;20186;-77
2023/08/08 03:23:11;;;;;;;122.20;117.05;;;;;;;13.81;100.00;93099.72;5065495;28;20752;-77
2023/08/08 03:25:40;;;;;;;125.63;120.20;;;;;;;13.97;100.00;93095.59;5067350;28;20044;-81
2023/08/08 03:28:06;;;;;;;160.95;153.73;;;;;;;13.93;100.00;93094.47;5068591;28;20048;-80
2023/08/08 03:30:33;;;;;;;177.18;169.25;;;;;;;14.07;100.00;93094.97;5066443;28;20102;-81
2023/08/08 03:33:00;;;;;;;143.45;137.45;;;;;;;14.29;100.00;93110.56;5066152;28;20053;-81
2023/08/08 03:35:27;;;;;;;248.95;237.80;;;;;;;14.26;100.00;93098.09;5065660;28;20048;-80
2023/08/08 03:37:53;;;;;;;157.23;150.43;;;;;;;14.44;100.00;93114.38;5066811;28;20851;-80
2023/08/08 03:40:20;;;;;;;124.00;118.50;;;;;;;14.55;100.00;93107.56;5065099;28;20049;-79
2023/08/08 03:42:49;;;;;;;101.63;97.20;;;;;;;14.58;100.00;93109.66;5066297;28;20045;-81
2023/08/08 03:45:16;;;;;;;89.55;85.57;;;;;;;14.67;100.00;93103.09;5063791;28;20822;-81
2023/08/08 03:47:42;;;;;;;103.13;98.70;;;;;;;14.77;100.00;93112.81;5066271;28;20060;-82
2023/08/08 03:50:10;;;;;;;77.00;73.63;;;;;;;14.85;100.00;93106.44;5067698;28;20142;-81
2023/08/08 03:52:37;;;;;;;55.83;53.28;;;;;;;14.79;100.00;93084.94;5065514;28;20106;-80
2023/08/08 03:55:05;;;;;;;106.30;101.55;;;;;;;14.97;100.00;93111.53;5066682;28;20052;-80
2023/08/08 03:57:32;;;;;;;86.65;82.82;;;;;;;14.93;100.00;93123.38;5066176;28;20040;-80
2023/08/08 04:00:00;;;;;;;82.63;78.85;;;;;;;14.74;100.00;93117.66;5063092;28;20064;-81
2023/08/08 04:02:28;;;;;;;86.45;82.57;;;;;;;14.67;100.00;93120.38;5066010;28;20581;-81
2023/08/08 04:04:54;;;;;;;82.97;79.38;;;;;;;14.45;100.00;93126.31;5065882;28;20041;-81
2023/08/08 04:07:21;;;;;;;178.05;169.88;;;;;;;14.48;100.00;93123.22;5064702;28;20082;-81
2023/08/08 04:09:48;;;;;;;162.70;155.55;;;;;;;14.60;100.00;93128.31;5066447;28;20042;-80
2023/08/08 04:12:14;;;;;;;105.32;100.75;;;;;;;14.53;100.00;93132.84;5067804;28;20407;-80
2023/08/08 04:14:43;;;;;;;92.65;88.50;;;;;;;14.53;100.00;93119.94;5065018;28;21136;-80
2023/08/08 04:17:11;;;;;;;101.10;96.63;;;;;;;14.52;100.00;93123.53;5065515;28;20749;-79
2023/08/08 04:19:39;;;;;;;136.32;130.15;;;;;;;14.33;100.00;93133.31;5061722;28;20057;-79
2023/08/08 04:22:05;;;;;;;96.78;92.43;;;;;;;14.10;100.00;93132.44;5063305;28;20078;-79
2023/08/08 04:24:32;;;;;;;96.78;92.38;;;;;;;14.13;100.00;93143.09;5061138;28;20052;-80
2023/08/08 04:26:59;;;;;;;148.25;141.40;;;;;;;13.97;100.00;93136.91;5064018;28;20048;-80
2023/08/08 04:29:26;;;;;;;214.95;205.25;;;;;;;13.82;100.00;93132.25;5060203;28;20052;-80
2023/08/08 04:31:52;;;;;;;220.32;210.20;;;;;;;13.78;100.00;93130.38;5060575;28;20048;-80
2023/08/08 04:34:21;;;;;;;223.18;212.93;;;;;;;13.86;100.00;93130.00;5064961;28;20491;-80
2023/08/08 04:36:47;;;;;;;210.13;200.52;;;;;;;13.70;100.00;93116.03;5062656;28;20044;-80
2023/08/08 04:39:17;;;;;;;217.90;208.10;;;;;;;13.65;100.00;93096.06;5064420;28;20044;-80
2023/08/08 04:41:43;;;;;;;219.82;209.75;;;;;;;13.83;100.00;93112.38;5064913;28;20113;-82
2023/08/08 04:44:10;;;;;;;226.10;216.13;;;;;;;13.68;100.00;93115.47;5064240;28;20090;-81
2023/08/08 04:46:37;;;;;;;230.45;219.82;;;;;;;13.90;100.00;93128.53;5055569;28;20052;-81
2023/08/08 04:49:04;;;;;;;191.18;182.77;;;;;;;14.12;100.00;93138.94;5065101;28;20045;-81
2023/08/08 04:51:32;;;;;;;158.32;151.10;;;;;;;14.18;100.00;93132.09;5063661;28;20044;-81
2023/08/08 04:53:59;;;;;;;119.90;114.60;;;;;;;14.16;100.00;93157.34;5066554;28;20040;-81
2023/08/08 04:56:25;;;;;;;183.00;174.73;;;;;;;14.08;100.00;93143.03;5064924;28;20564;-81
2023/08/08 04:58:52;;;;;;;105.63;100.80;;;;;;;14.37;100.00;93173.19;5065071;28;20086;-81
2023/08/08 05:01:20;;;;;;;99.60;94.80;;;;;;;14.47;100.00;93169.97;5061728;28;20045;-81
2023/08/08 05:03:47;;;;;;;107.15;102.00;;;;;;;14.56;100.00;93181.50;5063881;28;20080;-80
2023/08/08 05:06:13;;;;;;;91.40;87.28;;;;;;;14.27;100.00;93187.50;5066221;28;20045;-82
2023/08/08 05:08:42;;;;;;;90.97;87.00;;;;;;;13.85;100.00;93192.97;5062120;28;20052;-80
2023/08/08 05:11:08;;;;;;;164.48;157.23;;;;;;;13.82;100.00;93178.72;5063185;28;20797;-79
2023/08/08 05:13:35;;;;;;;170.85;163.32;;;;;;;13.65;100.00;93191.56;5064996;28;20134;-77
2023/08/08 05:16:02;;;;;;;190.48;181.88;;;;;;;13.71;100.00;93193.22;5064771;28;20672;-78
2023/08/08 05:18:28;;;;;;;179.50;171.55;;;;;;;13.71;100.00;93202.78;5063648;28;20101;-77
2023/08/08 05:20:55;;;;;;;184.43;176.40;;;;;;;13.55;100.00;93209.44;5063320;28;20041;-78
2023/08/08 05:23:22;;;;;;;207.35;198.02;;;;;;;13.81;100.00;93215.09;5062667;28;20086;-79
2023/08/08 05:25:50;;;;;;;183.05;174.95;;;;;;;13.73;100.00;93229.16;5065398;28;20059;-78
2023/08/08 05:28:17;;;;;;;175.15;167.10;;;;;;;13.63;100.00;93237.47;5064647;28;20101;-77
2023/08/08 05:30:43;;;;;;;100.80;96.43;;;;;;;13.74;100.00;93230.72;5065645;28;20490;-78
2023/08/08 05:33:10;;;;;;;173.43;165.73;;;;;;;13.89;100.00;93236.19;5062589;28;20041;-78
2023/08/08 05:35:37;;;;;;;180.15;172.13;;;;;;;13.89;100.00;93204.44;5065384;28;20098;-79
2023/08/08 05:38:04;;;;;;;117.30;112.20;;;;;;;13.98;100.00;93228.06;5065088;28;20052;-79
2023/08/08 05:40:31;;;;;;;190.20;181.77;;;;;;;13.97;100.00;93224.69;5062976;28;20040;-81
2023/08/08 05:42:59;;;;;;;103.18;98.50;;;;;;;13.86;100.00;93225.53;5067124;28;20498;-81
2023/08/08 05:45:26;;;;;;;124.38;119.03;;;;;;;13.97;100.00;93247.94;5067925;28;20056;-79
2023/08/08 05:47:52;;;;;;;132.45;126.45;;;;;;;14.07;100.00;93249.16;5065332;28;20052;-77
2023/08/08 05:50:20;;;;;;;99.45;94.75;;;;;;;13.71;100.00;93251.84;5064644;28;20521;-77
2023/08/08 05:52:46;;;;;;;105.03;100.35;;;;;;;13.37;100.00;93249.81;5068132;28;20052;-78
2023/08/08 05:55:13;;;;;;;183.07;174.80;;;;;;;13.51;100.00;93262.53;5067906;28;20054;-78
2023/08/08 05:57:41;;;;;;;111.80;106.75;;;;;;;13.45;100.00;93256.44;5064794;28;20485;-79
2023/08/08 06:00:11;;;;;;;214.20;204.48;;;;;;;13.59;100.00;93264.75;5065440;28;20834;-79
2023/08/08 06:02:38;;;;;;;223.50;213.48;;;;;;;13.82;100.00;93263.94;5066247;28;20048;-79
2023/08/08 06:05:05;;;;;;;165.45;157.93;;;;;;;13.87;100.00;93261.44;5068898;28;20044;-77
2023/08/08 06:07:32;;;;;;;177.05;168.95;;;;;;;13.84;100.00;93268.88;5067459;28;20045;-78
2023/08/08 06:09:59;;;;;;;125.05;119.53;;;;;;;14.07;100.00;93277.56;5069179;28;20464;-80
2023/08/08 06:12:25;;;;;;;152.32;145.43;;;;;;;14.15;100.00;93272.81;5065062;28;20121;-78
2023/08/08 06:14:52;;;;;;;92.55;88.32;;;;;;;13.99;100.00;93266.56;5066772;28;20044;-79
2023/08/08 06:17:20;;;;;;;173.50;165.73;;;;;;;14.06;100.00;93278.59;5065875;28;20052;-79
2023/08/08 06:19:47;;;;;;;148.15;141.65;;;;;;;14.21;100.00;93276.28;5066662;28;20548;-78
2023/08/08 06:22:14;;;;;;;185.88;177.55;;;;;;;14.31;100.00;93275.69;5062030;28;20052;-78
2023/08/08 06:24:40;;;;;;;139.93;133.75;;;;;;;14.27;100.00;93280.50;5069470;28;20098;-78
2023/08/08 06:27:07;;;;;;;88.00;83.93;;;;;;;14.26;100.00;93284.13;5064452;28;20134;-78
2023/08/08 06:29:34;;;;;;;168.23;160.82;;;;;;;14.36;100.00;93272.41;5068826;28;20383;-78
2023/08/08 06:32:02;;;;;;;111.28;106.30;;;;;;;14.44;100.00;93272.03;5063562;28;20418;-79
2023/08/08 06:34:31;;;;;;;109.25;104.40;;;;;;;14.87;100.00;93269.13;5063874;28;20173;-78
2023/08/08 06:36:57;;;;;;;156.57;149.48;;;;;;;15.14;100.00;93258.16;5062652;28;20137;-79
2023/08/08 06:39:24;;;;;;;108.10;103.07;;;;;;;15.35;100.00;93260.03;5063419;28;20055;-79
2023/08/08 06:41:51;;;;;;;45.65;43.63;;;;;;;15.83;100.00;93264.78;5057998;28;20094;-79
2023/08/08 06:44:18;;;;;;;52.20;48.72;;;;;;;15.96;100.00;93221.44;5064881;28;20565;-78
2023/08/08 06:46:45;;;;;;;33.03;31.50;;;;;;;16.33;100.00;93272.59;5062907;28;20457;-78
2023/08/08 06:49:11;;;;;;;37.22;35.45;;;;;;;16.03;100.00;93274.63;5064338;28;20553;-77
2023/08/08 06:51:39;;;;;;;46.22;44.10;;;;;;;16.00;100.00;93276.91;5066948;28;20045;-79
2023/08/08 06:54:07;;;;;;;35.50;33.60;;;;;;;16.12;100.00;93269.78;5067885;28;20045;-79
2023/08/08 06:56:34;;;;;;;38.72;36.83;;;;;;;15.90;100.00;93272.38;5067196;28;20112;-78
2023/08/08 06:59:01;;;;;;;40.67;38.85;;;;;;;15.50;100.00;93279.38;5065777;28;20040;-80
2023/08/08 07:01:28;;;;;;;34.45;32.85;;;;;;;15.84;100.00;93281.09;5063467;28;20044;-78
2023/08/08 07:03:54;;;;;;;28.13;26.75;;;;;;;15.93;100.00;93274.53;5063060;28;20466;-78
2023/08/08 07:06:21;;;;;;;38.25;36.40;;;;;;;15.90;100.00;93286.13;5065165;28;20052;-78
2023/08/08 07:08:49;;;;;;;31.67;30.25;;;;;;;15.78;100.00;93285.41;5068866;28;20048;-78
2023/08/08 07:11:16;;;;;;;30.90;29.50;;;;;;;16.00;100.00;93276.91;5065277;28;20105;-80
2023/08/08 07:13:43;;;;;;;26.35;25.08;;;;;;;16.16;100.00;93276.06;5068972;28;20062;-78
2023/08/08 07:16:09;;;;;;;31.35;29.75;;;;;;;16.02;100.00;93280.06;5064692;28;20041;-79
2023/08/08 07:18:37;;;;;;;29.02;27.67;;;;;;;16.08;100.00;93281.69;5066936;28;20094;-80
2023/08/08 07:21:05;;;;;;;30.42;29.00;;;;;;;16.09;100.00;93290.22;5066169;28;20045;-80
2023/08/08 07:23:32;;;;;;;47.47;45.33;;;;;;;16.24;100.00;93289.63;5067540;28;20565;-80
2023/08/08 07:26:01;;;;;;;36.92;35.25;;;;;;;15.92;100.00;93279.91;5067127;28;20044;-79
2023/08/08 07:28:27;;;;;;;32.28;30.83;;;;;;;16.08;100.00;93286.06;5066813;28;20098;-78
2023/08/08 07:30:54;;;;;;;30.67;29.27;;;;;;;15.86;100.00;93277.25;5064194;28;20053;-78
2023/08/08 07:33:21;;;;;;;39.10;37.35;;;;;;;16.01;100.00;93279.25;5066763;28;20067;-79
2023/08/08 07:35:47;;;;;;;29.23;27.80;;;;;;;16.20;100.00;93286.72;5066353;28;20165;-79
2023/08/08 07:38:15;;;;;;;29.13;27.63;;;;;;;16.01;100.00;93294.00;5063859;28;20048;-81
2023/08/08 07:40:42;;;;;;;26.38;25.17;;;;;;;15.76;100.00;93292.66;5064261;28;20059;-78
2023/08/08 07:43:10;;;;;;;44.53;42.58;;;;;;;15.86;100.00;93277.25;5061056;28;20048;-79
2023/08/08 07:45:37;;;;;;;48.13;45.97;;;;;;;16.38;100.00;93292.63;5066019;28;20049;-78
2023/08/08 07:48:05;;;;;;;36.58;34.97;;;;;;;16.70;100.00;93260.75;5063015;28;20135;-79
2023/08/08 07:50:32;;;;;;;27.80;26.40;;;;;;;17.10;96.04;93274.34;5062907;28;20155;-79
2023/08/08 07:52:58;;;;;;;25.83;24.52;;;;;;;17.44;95.10;93276.66;5063103;28;20052;-79
2023/08/08 07:55:25;;;;;;;17.70;16.67;;;;;;;17.55;90.38;93280.06;5062312;28;20514;-80
2023/08/08 07:57:52;;;;;;;15.30;14.32;;;;;;;17.54;89.66;93273.31;5065764;28;20599;-80
2023/08/08 08:00:21;;;;;;;14.88;14.18;;;;;;;17.36;88.77;93280.50;5062744;28;20106;-80
2023/08/08 08:02:48;;;;;;;15.27;14.48;;;;;;;17.40;89.92;93283.38;5062759;28;20044;-81
2023/08/08 08:05:16;;;;;;;19.35;18.42;;;;;;;17.49;89.76;93281.06;5066859;28;20461;-79
2023/08/08 08:07:43;;;;;;;23.58;22.40;;;;;;;17.73;89.49;93273.69;5063999;28;20052;-79
2023/08/08 08:10:13;;;;;;;17.92;17.13;;;;;;;17.72;87.18;93261.72;5064021;28;20086;-78
2023/08/08 08:12:40;;;;;;;12.80;12.10;;;;;;;17.98;86.32;93269.66;5064184;28;20102;-75
2023/08/08 08:15:09;;;;;;;10.50;10.00;;;;;;;18.54;85.86;93276.06;5061470;28;20437;-75
2023/08/08 08:17:37;;;;;;;7.20;6.80;;;;;;;18.37;80.03;93244.31;5060894;28;20090;-75
2023/08/08 08:20:07;;;;;;;6.13;5.82;;;;;;;18.19;80.16;93277.53;5060832;28;20469;-81
2023/08/08 08:22:34;;;;;;;7.85;7.25;;;;;;;18.34;77.39;93281.22;5062733;28;20049;-76
2023/08/08 08:25:01;;;;;;;8.88;8.38;;;;;;;18.20;80.41;93278.31;5064269;28;20052;-78
2023/08/08 08:27:28;;;;;;;7.35;6.95;;;;;;;18.32;80.68;93278.09;5064015;28;20048;-79
2023/08/08 08:29:54;;;;;;;11.98;11.38;;;;;;;18.50;80.38;93271.63;5061867;28;20044;-78
2023/08/08 08:32:21;;;;;;;8.60;8.18;;;;;;;18.26;81.17;93283.28;5062706;28;20056;-77
2023/08/08 08:34:49;;;;;;;15.27;14.48;;;;;;;17.84;80.87;93263.34;5065409;28;20059;-77
2023/08/08 08:37:16;;;;;;;11.38;10.68;;;;;;;18.25;80.98;93283.53;5064903;28;20498;-77
2023/08/08 08:39:43;;;;;;;11.20;10.50;;;;;;;17.96;78.76;93268.34;5062034;28;20513;-77
2023/08/08 08:42:14;;;;;;;9.55;9.05;;;;;;;18.11;77.79;93263.22;5065787;28;20441;-78
2023/08/08 08:44:42;;;;;;;10.88;10.27;;;;;;;18.12;77.75;93287.38;5062880;28;20102;-79
2023/08/08 08:47:12;;;;;;;10.38;9.77;;;;;;;18.10;77.72;93276.47;5064548;28;20059;-79
2023/08/08 08:49:39;;;;;;;12.05;11.35;;;;;;;18.49;79.17;93277.88;5064182;28;20068;-77
2023/08/08 08:52:07;;;;;;;11.20;10.60;;;;;;;18.75;79.55;93280.53;5063752;28;20117;-77
2023/08/08 08:54:35;;;;;;;6.88;6.47;;;;;;;18.84;78.92;93250.31;5062721;28;20054;-77
2023/08/08 08:57:02;;;;;;;7.63;7.18;;;;;;;18.18;75.94;93272.59;5060296;28;20139;-77
2023/08/08 08:59:29;;;;;;;9.27;8.77;;;;;;;18.64;74.76;93272.69;5060931;28;20109;-75
2023/08/08 09:01:57;;;;;;;8.45;7.95;;;;;;;19.06;75.32;93264.94;5061486;28;20593;-76
2023/08/08 09:04:24;;;;;;;7.15;6.60;;;;;;;19.12;75.70;93248.25;5059155;28;20928;-78
2023/08/08 09:06:52;;;;;;;5.13;4.82;;;;;;;19.00;73.11;93260.75;5057057;28;20045;-76
2023/08/08 09:09:21;;;;;;;6.65;6.15;;;;;;;18.89;75.30;93265.94;5060300;28;20184;-76
2023/08/08 09:11:53;;;;;;;5.78;5.28;;;;;;;18.85;75.09;93262.31;5064044;28;20091;-76
2023/08/08 09:14:21;;;;;;;8.18;7.68;;;;;;;19.25;76.53;93267.78;5061761;28;20135;-76
2023/08/08 09:16:48;;;;;;;4.20;3.90;;;;;;;19.58;74.69;93251.84;5059948;28;20048;-76
2023/08/08 09:19:15;;;;;;;4.30;4.00;;;;;;;19.68;70.39;93258.84;5062315;28;20059;-76
2023/08/08 09:21:42;;;;;;;3.35;3.15;;;;;;;19.17;71.57;93252.69;5060240;28;20056;-76
2023/08/08 09:24:09;;;;;;;5.53;5.22;;;;;;;18.81;75.44;93259.47;5060613;28;20834;-76
2023/08/08 09:26:37;;;;;;;7.47;7.05;;;;;;;18.64;73.43;93267.50;5061119;28;20041;-75
2023/08/08 09:29:04;;;;;;;7.72;7.22;;;;;;;18.77;73.22;93242.78;5062114;28;20048;-76
2023/08/08 09:31:31;;;;;;;6.93;6.53;;;;;;;18.93;76.81;93259.19;5059882;28;20524;-76
2023/08/08 09:34:00;;;;;;;6.38;5.78;;;;;;;18.96;78.30;93253.47;5061214;28;20071;-76
2023/08/08 09:36:27;;;;;;;5.70;5.30;;;;;;;18.89;76.58;93260.72;5058674;28;20053;-77
2023/08/08 09:38:54;;;;;;;6.82;6.43;;;;;;;18.64;78.04;93274.50;5059442;28;20048;-78
2023/08/08 09:41:21;;;;;;;9.10;8.65;;;;;;;18.33;80.24;93287.47;5060808;28;20210;-76
2023/08/08 09:43:50;;;;;;;8.43;8.02;;;;;;;18.47;77.54;93277.34;5061118;28;20088;-76
2023/08/08 09:46:17;;;;;;;12.30;11.60;;;;;;;18.29;75.89;93293.16;5061262;28;20834;-77
2023/08/08 09:48:44;;;;;;;10.70;10.10;;;;;;;18.25;76.00;93275.75;5059662;28;20048;-76
2023/08/08 09:51:11;;;;;;;12.30;11.70;;;;;;;18.25;78.42;93267.94;5059641;28;20497;-76
2023/08/08 09:53:39;;;;;;;8.55;8.05;;;;;;;18.48;74.40;93284.91;5062181;28;20041;-76
2023/08/08 09:56:07;;;;;;;9.82;9.32;;;;;;;18.01;74.53;93283.94;5060525;28;20056;-77
2023/08/08 09:58:34;;;;;;;10.95;10.45;;;;;;;17.85;76.65;93272.69;5062842;28;20037;-78
2023/08/08 10:01:04;;;;;;;10.35;9.48;;;;;;;18.13;77.17;93286.34;5062405;28;20053;-77
2023/08/08 10:03:32;;;;;;;9.45;8.88;;;;;;;18.18;76.60;93293.41;5062536;28;20040;-76
2023/08/08 10:05:59;;;;;;;10.18;9.68;;;;;;;18.31;75.41;93272.09;5063580;28;20076;-75
2023/08/08 10:08:26;;;;;;;6.78;6.35;;;;;;;18.47;76.04;93287.75;5062061;28;20131;-76
2023/08/08 10:10:53;;;;;;;7.25;6.75;;;;;;;18.65;77.57;93282.06;5059689;28;20056;-76
2023/08/08 10:13:21;;;;;;;5.82;5.43;;;;;;;18.56;76.13;93283.59;5059671;28;20063;-76
2023/08/08 10:15:48;;;;;;;7.35;6.93;;;;;;;19.04;76.35;93290.44;5060837;28;20076;-77
2023/08/08 10:18:17;;;;;;;6.75;6.43;;;;;;;19.05;71.55;93286.81;5058735;28;20048;-75
2023/08/08 10:20:44;;;;;;;5.07;4.78;;;;;;;19.47;74.04;93277.91;5062019;28;20052;-76
2023/08/08 10:23:11;;;;;;;4.28;3.97;;;;;;;19.63;71.30;93283.88;5061843;28;20084;-75
2023/08/08 10:25:38;;;;;;;4.35;4.00;;;;;;;19.43;71.48;93291.72;5063663;28;20142;-76
2023/08/08 10:28:06;;;;;;;4.13;3.83;;;;;;;18.60;72.57;93292.47;5059379;28;20099;-75
2023/08/08 10:30:44;;;;;;;5.75;5.43;;;;;;;19.28;71.55;93295.91;5061778;28;20052;-76
2023/08/08 10:33:19;;;;;;;4.03;3.78;;;;;;;18.94;69.40;93265.94;5063002;28;20083;-76
2023/08/08 10:35:57;;;;;;;4.82;4.43;;;;;;;19.80;73.58;93289.84;5061763;28;20048;-76
2023/08/08 10:38:24;;;;;;;3.65;3.45;;;;;;;19.90;69.68;93264.50;5062607;28;20131;-77
2023/08/08 10:40:57;;;;;;;3.33;3.10;;;;;;;19.95;69.35;93252.50;5063430;28;20056;-76
2023/08/08 10:43:28;;;;;;;3.42;3.13;;;;;;;20.15;69.68;93270.69;5064451;28;20407;-77
2023/08/08 10:45:58;;;;;;;3.17;2.88;;;;;;;19.75;70.05;93286.19;5068035;28;20048;-76
2023/08/08 10:48:27;;;;;;;3.60;3.30;;;;;;;19.23;71.48;93267.28;5063204;28;20044;-77
2023/08/08 10:50:55;;;;;;;3.45;3.25;;;;;;;19.68;73.56;93274.50;5064203;28;20554;-76
2023/08/08 10:53:24;;;;;;;3.30;3.10;;;;;;;20.07;72.82;93271.25;5067147;28;20099;-77
2023/08/08 10:55:58;;;;;;;2.97;2.78;;;;;;;20.51;71.56;93258.53;5061067;28;20634;-77
2023/08/08 10:58:36;;;;;;;2.65;2.45;;;;;;;20.75;67.53;93256.03;5065991;28;20523;-78
2023/08/08 11:01:05;;;;;;;2.10;1.88;;;;;;;21.14;67.60;93274.53;5062456;28;20125;-77
2023/08/08 11:03:34;;;;;;;2.08;1.88;;;;;;;21.02;66.34;93257.41;5062904;28;20052;-77
2023/08/08 11:06:03;;;;;;;2.20;1.80;;;;;;;21.38;66.52;93260.75;5062315;28;20090;-77
2023/08/08 11:08:31;;;;;;;3.33;1.77;;;;;;;21.83;64.65;93237.84;5062968;28;20049;-77
2023/08/08 11:10:59;;;;;;;1.42;1.33;;;;;;;22.05;63.51;93260.06;5062361;28;20127;-78